TimeMST,TemperatureF,Dew PointF,Humidity,Sea Level PressureIn,VisibilityMPH,Wind Direction,Wind SpeedMPH,Gust SpeedMPH,PrecipitationIn,Events,Conditions,WindDirDegrees,DateUTC
12:56 AM,5.0,2.1,88,30.56,10.0,ESE,3.5,-,N/A,,Clear,120,2013-01-20 07:56:00
1:56 AM,7.2,4.1,87,30.54,10.0,South,4.6,-,N/A,,Clear,190,2013-01-20 08:56:00
2:56 AM,-0.9,-4.9,83,30.58,10.0,SSE,3.5,-,N/A,,Clear,160,2013-01-20 09:56:00
3:56 AM,-2.9,-6.9,83,30.61,10.0,East,4.6,-,N/A,,Clear,80,2013-01-20 10:56:00
4:56 AM,5.0,0.1,80,30.54,10.0,SE,3.5,-,N/A,,Clear,130,2013-01-20 11:56:00
5:56 AM,4.1,0.1,84,30.58,10.0,SE,4.6,-,N/A,,Clear,130,2013-01-20 12:56:00
6:56 AM,-1.8,-6.0,83,30.64,10.0,East,3.5,-,N/A,,Clear,100,2013-01-20 13:56:00
7:56 AM,-6.0,-9.9,83,30.69,10.0,ENE,3.5,-,N/A,,Clear,60,2013-01-20 14:56:00
8:56 AM,5.0,1.0,84,30.65,10.0,ESE,4.6,-,N/A,,Clear,120,2013-01-20 15:56:00
9:56 AM,10.0,4.1,77,30.65,10.0,Calm,Calm,-,N/A,,Clear,0,2013-01-20 16:56:00
10:56 AM,13.1,5.0,70,30.65,10.0,East,3.5,-,N/A,,Clear,90,2013-01-20 17:56:00
11:56 AM,17.1,8.1,68,30.61,10.0,West,4.6,-,N/A,,Clear,270,2013-01-20 18:56:00
12:56 PM,19.0,10.0,68,30.55,10.0,Calm,Calm,-,N/A,,Clear,0,2013-01-20 19:56:00
1:56 PM,18.1,10.0,71,30.53,10.0,Calm,Calm,-,N/A,,Clear,0,2013-01-20 20:56:00
2:56 PM,19.0,9.1,65,30.56,10.0,Calm,Calm,-,N/A,,Clear,0,2013-01-20 21:56:00
3:56 PM,16.2,5.0,62,30.58,10.0,Calm,Calm,-,N/A,,Clear,0,2013-01-20 22:56:00
4:56 PM,14.0,5.0,67,30.55,10.0,Calm,Calm,-,N/A,,Clear,0,2013-01-20 23:56:00
5:56 PM,7.2,2.1,80,30.59,10.0,SE,3.5,-,N/A,,Clear,140,2013-01-21 00:56:00
6:56 PM,6.1,2.1,84,30.65,10.0,ESE,4.6,-,N/A,,Clear,120,2013-01-21 01:56:00
7:56 PM,5.0,1.0,84,30.67,10.0,SE,5.8,-,N/A,,Clear,140,2013-01-21 02:56:00
8:56 PM,-0.9,-4.9,83,30.65,10.0,Calm,Calm,-,N/A,,Clear,0,2013-01-21 03:56:00
9:56 PM,-2.9,-6.9,83,30.64,10.0,East,3.5,-,N/A,,Clear,100,2013-01-21 04:56:00
10:56 PM,2.1,-0.9,87,30.60,10.0,SE,5.8,-,N/A,,Clear,140,2013-01-21 05:56:00
11:56 PM,-6.0,-10.8,79,30.61,10.0,Calm,Calm,-,N/A,,Clear,0,2013-01-21 06:56:00